KCBE/CBE METAR and TAF weather

Enter ICAO airport designator
Station Type Date Time Source
KCBE METAR 2019/04/25 21:40 UTC NOAA

KCBE 252140Z AUTO 02006KT 10SM BKN085 16/11 A2990 RMK AO2 T01570115


Station Type Date Time Source
KCBE Decoded METAR 2019/04/25 21:40 UTC NOAA

Cumberland, Greater Cumberland Regional Airport, MD, United States (KCBE) 39-36-55N 078-45-39W
Apr 25, 2019 - 05:40 PM EDT / 2019.04.25 2140 UTC
Wind: from the NNE (020 degrees) at 7 MPH (6 KT):0
Visibility: 10 mile(s):0
Sky conditions: mostly cloudy
Temperature: 60.3 F (15.7 C)
Dew Point: 52.7 F (11.5 C)
Relative Humidity: 76%
Pressure (altimeter): 29.9 in. Hg (1012 hPa)
ob: KCBE 252140Z AUTO 02006KT 10SM BKN085 16/11 A2990 RMK AO2 T01570115
cycle: 21

Station Type Date Time Source
KCBE TAF UTC NOAA

Error!

Example: see airport list